Terminal Aerodrome Forecast
Issued by NWS

Home | Current Version | Previous Version | Text Only | Print | Product List | Glossary Off
Versions: 1 2 3 4 5 6 7 8 9 10 11 12 13 14 15 16 17 18 19 20 21 22 23 24 25 26 27 28 29 30 31 32 33 34 35

000
FTUS43 KLOT 251900 AAA
TAFDPA
TAF AMD
KDPA 251958Z 2520/2618 03018G27KT 5SM -SN OVC015
     FM252100 03017G26KT P6SM BKN020
     FM260300 02012KT P6SM BKN025
     FM260700 VRB03KT P6SM SCT025
     FM261400 21005KT P6SM FEW025 BKN080=

USA.gov is the U.S. government's official web portal to all federal, state and local government web resources and services.